createdAt,value
2018-09-04T00:01:04.237Z,45.87
2018-09-04T00:03:33.297Z,50.57
2018-09-04T00:06:02.353Z,51.77
2018-09-04T00:08:31.374Z,46.37
2018-09-04T00:11:00.465Z,40.87
2018-09-04T00:13:29.675Z,44.50
2018-09-04T00:15:58.861Z,49.73
2018-09-04T00:18:27.966Z,48.00
2018-09-04T00:20:57.029Z,43.33
2018-09-04T00:23:27.071Z,47.67
2018-09-04T00:25:56.221Z,47.03
2018-09-04T00:28:25.295Z,43.37
2018-09-04T00:30:54.313Z,49.47
2018-09-04T00:33:23.376Z,44.90
2018-09-04T00:35:52.554Z,44.63
2018-09-04T00:38:21.832Z,47.67
2018-09-04T00:40:50.956Z,48.73
2018-09-04T00:43:20.243Z,48.60
2018-09-04T00:45:49.253Z,48.97
2018-09-04T00:48:18.332Z,46.77
2018-09-04T00:50:47.400Z,52.80
2018-09-04T00:53:16.468Z,50.80
2018-09-04T00:55:45.514Z,52.70
2018-09-04T00:58:14.582Z,52.80
2018-09-04T01:00:43.608Z,52.70
2018-09-04T01:03:12.672Z,56.73
2018-09-04T01:05:41.733Z,54.47
2018-09-04T01:08:10.769Z,55.93
2018-09-04T01:10:39.760Z,55.70
2018-09-04T01:13:08.781Z,58.83
2018-09-04T01:15:37.952Z,57.53
2018-09-04T01:18:07.074Z,53.50
2018-09-04T01:20:36.059Z,53.53
2018-09-04T01:23:05.158Z,56.90
2018-09-04T01:25:34.174Z,63.90
2018-09-04T01:28:03.246Z,49.30
2018-09-04T01:30:32.350Z,57.17
2018-09-04T01:33:01.422Z,61.07
2018-09-04T01:35:30.582Z,56.93
2018-09-04T01:37:59.732Z,56.07
2018-09-04T01:40:28.816Z,56.50
2018-09-04T01:42:57.778Z,58.50
2018-09-04T01:45:26.760Z,66.60
2018-09-04T01:47:55.840Z,63.00
2018-09-04T01:50:24.866Z,57.20
2018-09-04T01:52:53.885Z,63.60
2018-09-04T01:55:22.992Z,64.00
2018-09-04T01:57:52.130Z,62.10
2018-09-04T02:00:21.195Z,65.13
2018-09-04T02:02:50.252Z,66.67
2018-09-04T02:05:19.248Z,65.33
2018-09-04T02:07:48.300Z,59.60
2018-09-04T02:10:17.340Z,67.30
2018-09-04T02:12:46.302Z,69.87
2018-09-04T02:15:15.348Z,71.83
2018-09-04T02:17:44.380Z,76.47
2018-09-04T02:20:13.428Z,68.50
2018-09-04T02:22:42.459Z,70.93
2018-09-04T02:25:11.518Z,72.67
2018-09-04T02:27:40.620Z,75.57
2018-09-04T02:30:09.623Z,79.77
2018-09-04T02:32:38.762Z,74.93
2018-09-04T02:35:07.810Z,84.33
2018-09-04T02:37:36.953Z,75.43
2018-09-04T02:40:05.986Z,85.13
2018-09-04T02:42:35.082Z,79.27
2018-09-04T02:45:04.250Z,76.63
2018-09-04T02:47:33.491Z,77.37
2018-09-04T02:50:02.478Z,84.00
2018-09-04T02:52:31.560Z,85.27
2018-09-04T02:55:00.561Z,86.07
2018-09-04T02:57:29.682Z,81.33
2018-09-04T02:59:58.781Z,79.20
2018-09-04T03:02:27.775Z,84.37
2018-09-04T03:04:56.881Z,85.40
2018-09-04T03:07:25.973Z,84.20
2018-09-04T03:09:55.988Z,83.93
2018-09-04T03:12:25.069Z,82.97
2018-09-04T03:14:54.122Z,84.77
2018-09-04T03:17:23.541Z,79.33
2018-09-04T03:19:52.545Z,83.63
2018-09-04T03:22:21.715Z,84.90
2018-09-04T03:24:50.801Z,77.57
2018-09-04T03:27:19.831Z,91.53
2018-09-04T03:29:49.022Z,84.83
2018-09-04T03:32:19.066Z,84.87
2018-09-04T03:34:48.143Z,87.60
2018-09-04T03:37:17.264Z,81.20
2018-09-04T03:39:46.327Z,81.47
2018-09-04T03:42:15.504Z,81.50
2018-09-04T03:44:44.515Z,92.30
2018-09-04T03:47:13.643Z,85.30
2018-09-04T03:49:42.777Z,90.97
2018-09-04T03:52:12.209Z,93.20
2018-09-04T03:54:41.233Z,94.03
2018-09-04T03:57:10.325Z,92.40
2018-09-04T03:59:39.414Z,92.23
2018-09-04T04:02:08.546Z,92.57
2018-09-04T04:04:37.617Z,90.60
2018-09-04T04:07:06.772Z,97.03
2018-09-04T04:09:35.909Z,102.03
2018-09-04T04:12:05.004Z,97.83
2018-09-04T04:14:34.072Z,88.90
2018-09-04T04:17:03.973Z,103.97
2018-09-04T04:19:32.988Z,97.50
2018-09-04T04:22:02.081Z,108.03
2018-09-04T04:24:31.189Z,124.33
2018-09-04T04:27:00.317Z,126.07
2018-09-04T04:29:30.233Z,128.13
2018-09-04T04:31:59.323Z,113.10
2018-09-04T04:34:28.326Z,114.33
2018-09-04T04:36:57.397Z,121.73
2018-09-04T04:39:26.520Z,125.63
2018-09-04T04:41:55.622Z,128.60
2018-09-04T04:44:24.710Z,118.90
2018-09-04T04:46:53.816Z,124.27
2018-09-04T04:49:22.865Z,136.53
2018-09-04T04:51:51.996Z,131.50
2018-09-04T04:54:21.014Z,132.23
2018-09-04T04:56:51.048Z,135.53
2018-09-04T04:59:20.126Z,130.13
2018-09-04T05:01:49.230Z,124.50
2018-09-04T05:04:18.228Z,128.63
2018-09-04T05:06:47.277Z,129.43
2018-09-04T05:09:16.310Z,129.27
2018-09-04T05:11:45.370Z,150.70
2018-09-04T05:14:14.418Z,141.67
2018-09-04T05:16:43.486Z,140.20
2018-09-04T05:19:12.604Z,136.13
2018-09-04T05:21:41.718Z,130.70
2018-09-04T05:24:10.750Z,133.80
2018-09-04T05:26:39.814Z,140.97
2018-09-04T05:29:08.990Z,144.37
2018-09-04T05:31:43.445Z,145.77
2018-09-04T05:34:12.529Z,170.63
2018-09-04T05:36:42.011Z,158.00
2018-09-04T05:39:11.227Z,148.07
2018-09-04T05:41:40.424Z,156.20
2018-09-04T05:44:09.433Z,139.70
2018-09-04T05:46:45.529Z,157.30
2018-09-04T05:49:16.931Z,144.37
2018-09-04T05:51:46.000Z,138.07
2018-09-04T05:54:15.147Z,138.63
2018-09-04T05:56:44.259Z,136.33
2018-09-04T05:59:13.353Z,153.20
2018-09-04T06:01:42.437Z,150.63
2018-09-04T06:04:11.532Z,148.50
2018-09-04T06:06:40.595Z,149.20
2018-09-04T06:09:09.791Z,141.27
2018-09-04T06:11:38.820Z,145.37
2018-09-04T06:14:07.793Z,146.13
2018-09-04T06:16:37.737Z,134.20
2018-09-04T06:19:06.835Z,159.40
2018-09-04T06:21:35.890Z,142.17
2018-09-04T06:24:05.093Z,146.90
2018-09-04T06:26:34.227Z,138.43
2018-09-04T06:29:03.350Z,130.93
2018-09-04T06:31:32.387Z,143.10
2018-09-04T06:34:01.539Z,130.17
2018-09-04T06:36:30.612Z,131.07
2018-09-04T06:38:59.746Z,127.63
2018-09-04T06:41:28.967Z,138.93
2018-09-04T06:43:58.026Z,120.87
2018-09-04T06:46:27.218Z,116.13
2018-09-04T06:48:56.169Z,114.90
2018-09-04T06:51:25.287Z,114.47
2018-09-04T06:53:54.385Z,96.63
2018-09-04T06:56:23.559Z,105.33
2018-09-04T06:58:52.639Z,96.70
2018-09-04T07:01:21.733Z,97.03
2018-09-04T07:03:50.917Z,84.80
2018-09-04T07:06:20.117Z,95.13
2018-09-04T07:08:49.223Z,90.70
2018-09-04T07:11:18.288Z,90.13
2018-09-04T07:13:47.505Z,84.97
2018-09-04T07:16:16.711Z,86.27
2018-09-04T07:18:45.862Z,77.43
2018-09-04T07:21:14.967Z,78.50
2018-09-04T07:23:44.573Z,76.20
2018-09-04T07:26:13.620Z,79.43
2018-09-04T07:28:42.752Z,80.23
2018-09-04T07:31:11.847Z,73.00
2018-09-04T07:33:40.898Z,73.63
2018-09-04T07:36:09.974Z,75.80
2018-09-04T07:38:39.178Z,77.33
2018-09-04T07:41:08.301Z,82.03
2018-09-04T07:43:37.390Z,83.90
2018-09-04T07:46:06.810Z,76.77
2018-09-04T07:48:35.874Z,77.27
2018-09-04T07:51:05.258Z,78.03
2018-09-04T07:53:34.387Z,73.43
2018-09-04T07:56:03.512Z,76.60
2018-09-04T07:58:32.563Z,77.63
2018-09-04T08:01:01.811Z,78.17
2018-09-04T08:03:30.760Z,75.87
2018-09-04T08:05:59.820Z,80.93
2018-09-04T08:08:29.008Z,84.07
2018-09-04T08:10:58.198Z,83.93
2018-09-04T08:13:27.336Z,89.20
2018-09-04T08:15:56.482Z,87.33
2018-09-04T08:18:25.746Z,86.87
2018-09-04T08:20:54.960Z,88.63
2018-09-04T08:23:23.972Z,88.47
2018-09-04T08:25:53.202Z,92.73
2018-09-04T08:28:22.232Z,86.17
2018-09-04T08:30:51.244Z,89.13
2018-09-04T08:33:20.462Z,87.63
2018-09-04T08:35:50.142Z,86.30
2018-09-04T08:38:19.240Z,88.50
2018-09-04T08:40:48.366Z,102.77
2018-09-04T08:43:17.568Z,95.10
2018-09-04T08:45:46.581Z,93.40
2018-09-04T08:48:18.440Z,92.80
2018-09-04T08:50:47.784Z,93.80
2018-09-04T08:53:17.550Z,95.33
2018-09-04T08:55:46.589Z,97.30
2018-09-04T08:58:15.743Z,106.93
2018-09-04T09:00:44.916Z,102.53
2018-09-04T09:03:14.596Z,98.87
2018-09-04T09:05:43.753Z,101.97
2018-09-04T09:08:12.942Z,100.90
2018-09-04T09:10:42.205Z,113.07
2018-09-04T09:13:11.231Z,99.00
2018-09-04T09:15:40.268Z,99.23
2018-09-04T09:18:09.403Z,108.10
2018-09-04T09:20:38.576Z,108.20
2018-09-04T09:23:07.804Z,110.13
2018-09-04T09:25:36.833Z,103.17
2018-09-04T09:28:06.201Z,105.57
2018-09-04T09:30:35.898Z,107.70
2018-09-04T09:33:05.040Z,103.70
2018-09-04T09:35:34.155Z,112.70
2018-09-04T09:38:03.431Z,105.53
2018-09-04T09:40:32.857Z,108.73
2018-09-04T09:43:02.011Z,108.73
2018-09-04T09:45:31.058Z,110.23
2018-09-04T09:48:00.185Z,116.27
2018-09-04T09:50:29.267Z,115.77
2018-09-04T09:52:58.414Z,118.87
2018-09-04T09:55:27.599Z,114.97
2018-09-04T09:57:56.735Z,115.03
2018-09-04T10:00:31.676Z,118.63
2018-09-04T10:03:03.819Z,116.10
2018-09-04T10:05:33.390Z,119.17
2018-09-04T10:08:02.523Z,115.43
2018-09-04T10:10:31.577Z,116.07
2018-09-04T10:13:00.655Z,116.57
2018-09-04T10:15:29.755Z,107.90
2018-09-04T10:17:58.782Z,113.80
2018-09-04T10:20:27.857Z,108.13
2018-09-04T10:22:56.930Z,112.13
2018-09-04T10:25:25.966Z,104.80
2018-09-04T10:27:55.113Z,107.13
2018-09-04T10:30:24.195Z,115.50
2018-09-04T10:32:54.192Z,113.80
2018-09-04T10:35:23.503Z,118.03
2018-09-04T10:37:52.619Z,124.57
2018-09-04T10:40:27.126Z,109.93
2018-09-04T10:42:56.162Z,109.47
2018-09-04T10:45:30.703Z,110.87
2018-09-04T10:47:59.750Z,98.50
2018-09-04T10:50:29.016Z,102.63
2018-09-04T10:52:58.168Z,107.63
2018-09-04T10:55:27.284Z,97.33
2018-09-04T10:57:56.342Z,92.27
2018-09-04T11:00:25.429Z,86.63
2018-09-04T11:02:54.570Z,85.20
2018-09-04T11:05:23.639Z,83.93
2018-09-04T11:07:52.738Z,80.17
2018-09-04T11:10:21.851Z,77.37
2018-09-04T11:12:51.319Z,79.83
2018-09-04T11:15:20.415Z,76.73
2018-09-04T11:17:49.493Z,80.87
2018-09-04T11:20:18.541Z,74.87
2018-09-04T11:22:47.685Z,77.50
2018-09-04T11:25:16.805Z,86.43
2018-09-04T11:27:45.892Z,77.57
2018-09-04T11:30:15.053Z,72.40
2018-09-04T11:32:44.102Z,72.87
2018-09-04T11:35:13.285Z,74.43
2018-09-04T11:37:42.371Z,66.80
2018-09-04T11:40:11.875Z,65.13
2018-09-04T11:42:41.246Z,72.43
2018-09-04T11:45:10.667Z,68.03
2018-09-04T11:47:41.654Z,67.57
2018-09-04T11:50:11.305Z,59.43
2018-09-04T11:52:40.492Z,65.50
2018-09-04T11:55:10.332Z,62.17
2018-09-04T11:57:39.712Z,63.93
2018-09-04T12:00:11.012Z,63.20
2018-09-04T12:02:40.894Z,61.47
2018-09-04T12:05:10.400Z,63.77
2018-09-04T12:07:39.656Z,61.23
2018-09-04T12:10:08.946Z,56.47
2018-09-04T12:12:38.107Z,56.73
2018-09-04T12:15:07.237Z,60.17
2018-09-04T12:17:36.276Z,52.23
2018-09-04T12:20:39.602Z,74.30
2018-09-04T12:23:08.994Z,58.13
2018-09-04T12:25:38.584Z,51.03
2018-09-04T12:28:07.730Z,57.10
2018-09-04T12:30:36.960Z,53.80
2018-09-04T12:33:06.059Z,61.37
2018-09-04T12:35:35.466Z,55.87
2018-09-04T12:38:05.293Z,50.73
2018-09-04T12:40:34.468Z,52.93
2018-09-04T12:43:04.080Z,56.57
2018-09-04T12:45:38.636Z,50.47
2018-09-04T12:48:08.031Z,47.03
2018-09-04T12:50:37.235Z,45.27
2018-09-04T12:53:06.483Z,43.53
2018-09-04T12:55:35.604Z,43.40
2018-09-04T12:58:04.770Z,44.73
2018-09-04T13:00:33.871Z,51.90
2018-09-04T13:03:02.970Z,51.00
2018-09-04T13:05:32.008Z,46.20
2018-09-04T13:08:01.111Z,45.10
2018-09-04T13:10:30.240Z,43.17
2018-09-04T13:12:59.232Z,42.60
2018-09-04T13:15:28.462Z,40.60
2018-09-04T13:17:57.536Z,40.17
2018-09-04T13:20:26.656Z,41.90
2018-09-04T13:22:55.711Z,41.23
2018-09-04T13:25:24.782Z,36.10
2018-09-04T13:27:53.868Z,37.73
2018-09-04T13:30:23.076Z,42.07
2018-09-04T13:32:52.284Z,41.60
2018-09-04T13:35:21.338Z,42.93
2018-09-04T13:37:50.417Z,38.93
2018-09-04T13:40:19.526Z,50.60
2018-09-04T13:42:48.579Z,44.70
2018-09-04T13:45:17.726Z,42.40
2018-09-04T13:47:46.743Z,42.43
2018-09-04T13:50:15.856Z,43.53
2018-09-04T13:52:45.039Z,42.73
2018-09-04T13:55:14.148Z,39.13
2018-09-04T13:57:43.321Z,38.13
2018-09-04T14:00:13.519Z,38.70
2018-09-04T14:02:42.611Z,37.60
2018-09-04T14:05:11.725Z,39.50
2018-09-04T14:07:40.920Z,39.47
2018-09-04T14:10:09.991Z,41.90
2018-09-04T14:12:39.153Z,40.57
2018-09-04T14:15:08.631Z,45.93
2018-09-04T14:17:37.652Z,41.70
2018-09-04T14:20:07.139Z,44.30
2018-09-04T14:22:36.418Z,40.00
2018-09-04T14:25:05.532Z,38.37
2018-09-04T14:27:34.664Z,42.80
2018-09-04T14:30:17.117Z,39.33
2018-09-04T14:32:32.831Z,35.80
2018-09-04T14:35:01.981Z,38.17
2018-09-04T14:37:31.013Z,43.20
2018-09-04T14:40:00.157Z,38.13
2018-09-04T14:42:29.231Z,37.53
2018-09-04T14:44:58.373Z,42.50
2018-09-04T14:47:27.448Z,41.93
2018-09-04T14:49:56.490Z,38.47
2018-09-04T14:52:25.794Z,40.70
2018-09-04T14:54:54.925Z,41.00
2018-09-04T14:57:24.058Z,38.87
2018-09-04T14:59:53.312Z,39.27
2018-09-04T15:02:22.581Z,42.07
2018-09-04T15:08:29.005Z,39.17
2018-09-04T15:10:58.190Z,37.70
2018-09-04T15:13:27.299Z,39.13
2018-09-04T15:15:56.475Z,39.30
2018-09-04T15:18:25.773Z,38.83
2018-09-04T15:20:55.230Z,37.60
2018-09-04T15:23:24.397Z,37.47
2018-09-04T15:25:53.669Z,37.50
2018-09-04T15:28:22.928Z,39.30
2018-09-04T15:30:52.025Z,40.30
2018-09-04T15:33:21.230Z,38.60
2018-09-04T15:35:50.373Z,39.50
2018-09-04T15:38:19.551Z,40.30
2018-09-04T15:40:48.746Z,40.53
2018-09-04T15:43:18.190Z,40.17
2018-09-04T15:45:47.455Z,40.13
2018-09-04T15:48:16.764Z,37.30
2018-09-04T15:50:46.060Z,39.37
2018-09-04T15:53:15.247Z,34.20
2018-09-04T15:55:44.559Z,41.97
2018-09-04T15:58:13.828Z,34.70
2018-09-04T16:00:43.068Z,36.87
2018-09-04T16:03:12.004Z,33.87
2018-09-04T16:05:41.108Z,32.93
2018-09-04T16:08:10.280Z,33.87
2018-09-04T16:10:39.528Z,30.73
2018-09-04T16:13:08.854Z,35.83
2018-09-04T16:15:38.207Z,33.33
2018-09-04T16:18:07.333Z,32.20
2018-09-04T16:20:36.603Z,32.23
2018-09-04T16:23:06.687Z,30.70
2018-09-04T16:25:35.785Z,32.13
2018-09-04T16:28:05.615Z,32.53
2018-09-04T16:30:34.687Z,31.03
2018-09-04T16:33:03.863Z,31.70
2018-09-04T16:35:33.081Z,33.80
2018-09-04T16:38:02.387Z,42.67
2018-09-04T16:40:31.494Z,33.07
2018-09-04T16:43:00.518Z,31.73
2018-09-04T16:45:29.757Z,31.40
2018-09-04T16:47:59.396Z,30.57
2018-09-04T16:50:28.736Z,30.63
2018-09-04T16:52:57.959Z,31.03
2018-09-04T16:55:27.185Z,26.27
2018-09-04T16:57:56.689Z,27.70
2018-09-04T17:00:26.782Z,25.97
2018-09-04T17:02:55.900Z,27.50
2018-09-04T17:05:25.735Z,27.30
2018-09-04T17:07:54.705Z,27.30
2018-09-04T17:10:23.740Z,27.90
2018-09-04T17:12:52.820Z,27.20
2018-09-04T17:15:21.897Z,25.97
2018-09-04T17:17:51.029Z,26.73
2018-09-04T17:20:20.073Z,27.37
2018-09-04T17:22:49.205Z,25.73
2018-09-04T17:25:18.277Z,26.97
2018-09-04T17:27:47.538Z,26.83
2018-09-04T17:30:16.753Z,26.10
2018-09-04T17:32:45.848Z,27.13
2018-09-04T17:35:15.037Z,27.80
2018-09-04T17:37:44.225Z,26.87
2018-09-04T17:40:13.326Z,27.30
2018-09-04T17:42:42.550Z,27.80
2018-09-04T17:45:11.563Z,28.60
2018-09-04T17:47:40.960Z,29.40
2018-09-04T17:50:10.017Z,28.80
2018-09-04T17:52:39.171Z,29.27
2018-09-04T17:55:08.277Z,27.97
2018-09-04T17:57:38.030Z,29.43
2018-09-04T18:00:07.659Z,32.50
2018-09-04T18:02:36.801Z,31.53
2018-09-04T18:05:05.900Z,34.93
2018-09-04T18:07:34.984Z,34.87
2018-09-04T18:10:04.053Z,37.57
2018-09-04T18:12:33.064Z,44.40
2018-09-04T18:15:02.110Z,44.53
2018-09-04T18:17:31.217Z,43.57
2018-09-04T18:20:00.406Z,36.70
2018-09-04T18:22:29.534Z,46.83
2018-09-04T18:24:58.649Z,48.50
2018-09-04T18:27:27.766Z,47.77
2018-09-04T18:29:56.891Z,48.07
2018-09-04T18:32:25.998Z,49.33
2018-09-04T18:34:55.814Z,50.57
2018-09-04T18:37:24.893Z,45.40
2018-09-04T18:39:54.008Z,49.47
2018-09-04T18:42:23.051Z,48.27
2018-09-04T18:44:52.189Z,49.53
2018-09-04T18:47:21.343Z,46.93
2018-09-04T18:49:51.584Z,49.50
2018-09-04T18:52:20.717Z,48.20
2018-09-04T18:54:49.819Z,51.10
2018-09-04T18:57:19.270Z,48.17
2018-09-04T18:59:48.618Z,55.07
2018-09-04T19:02:17.800Z,50.63
2018-09-04T19:04:46.865Z,56.13
2018-09-04T19:07:15.959Z,56.33
2018-09-04T19:09:45.682Z,56.60
2018-09-04T19:12:14.839Z,57.23
2018-09-04T19:14:43.986Z,61.17
2018-09-04T19:17:13.192Z,55.53
2018-09-04T19:19:43.236Z,57.13
2018-09-04T19:22:12.406Z,53.73
2018-09-04T19:24:41.488Z,52.47
2018-09-04T19:27:10.660Z,53.07
2018-09-04T19:29:39.880Z,53.70
2018-09-04T19:32:09.018Z,55.60
2018-09-04T19:34:38.121Z,54.73
2018-09-04T19:37:07.337Z,57.23
2018-09-04T19:39:36.662Z,54.07
2018-09-04T19:42:05.734Z,53.93
2018-09-04T19:44:34.841Z,58.73
2018-09-04T19:47:03.921Z,58.53
2018-09-04T19:49:33.032Z,56.90
2018-09-04T19:52:02.087Z,63.63
2018-09-04T19:54:31.176Z,61.97
2018-09-04T19:57:00.327Z,65.87
2018-09-04T19:59:29.468Z,57.73
2018-09-04T20:01:58.661Z,64.23
2018-09-04T20:04:28.041Z,61.93
2018-09-04T20:06:57.281Z,64.13
2018-09-04T20:09:26.408Z,66.23
2018-09-04T20:11:55.549Z,62.20
2018-09-04T20:14:24.669Z,60.73
2018-09-04T20:16:53.801Z,59.87
2018-09-04T20:19:22.901Z,62.33
2018-09-04T20:21:52.131Z,75.97
2018-09-04T20:24:21.335Z,66.30
2018-09-04T20:26:51.377Z,64.73
2018-09-04T20:29:20.555Z,58.40
2018-09-04T20:31:49.661Z,56.30
2018-09-04T20:34:18.755Z,64.67
2018-09-04T20:36:47.843Z,65.17
2018-09-04T20:39:16.913Z,65.97
2018-09-04T20:41:45.997Z,64.80
2018-09-04T20:44:15.095Z,63.30
2018-09-04T20:46:44.167Z,67.20
2018-09-04T20:49:13.302Z,74.13
2018-09-04T20:51:42.366Z,73.87
2018-09-04T20:54:11.455Z,70.13
2018-09-04T20:56:41.677Z,80.90
2018-09-04T20:59:22.069Z,77.30
2018-09-04T21:02:02.590Z,82.97
2018-09-04T21:04:43.219Z,78.83
2018-09-04T21:07:15.367Z,74.70
2018-09-04T21:09:50.011Z,71.17
2018-09-04T21:12:19.166Z,73.53
2018-09-04T21:14:48.220Z,79.17
2018-09-04T21:17:17.419Z,83.60
2018-09-04T21:19:46.612Z,82.70
2018-09-04T21:22:15.650Z,82.43
2018-09-04T21:24:45.426Z,77.53
2018-09-04T21:27:14.529Z,78.60
2018-09-04T21:29:43.648Z,81.50
2018-09-04T21:32:12.710Z,82.17
2018-09-04T21:34:41.859Z,80.97
2018-09-04T21:37:10.925Z,83.97
2018-09-04T21:39:40.102Z,84.10
2018-09-04T21:42:09.317Z,85.73
2018-09-04T21:44:38.506Z,87.03
2018-09-04T21:47:07.574Z,79.27
2018-09-04T21:49:36.638Z,83.90
2018-09-04T21:52:05.878Z,83.70
2018-09-04T21:54:34.966Z,87.50
2018-09-04T21:57:04.043Z,84.50
2018-09-04T21:59:33.165Z,84.83
2018-09-04T22:02:02.423Z,84.03
2018-09-04T22:04:31.509Z,88.60
2018-09-04T22:07:00.605Z,84.00
2018-09-04T22:09:29.802Z,85.33
2018-09-04T22:11:59.218Z,84.80
2018-09-04T22:14:28.310Z,76.20
2018-09-04T22:16:57.894Z,77.00
2018-09-04T22:19:27.012Z,85.47
2018-09-04T22:21:56.248Z,85.33
2018-09-04T22:24:25.402Z,73.27
2018-09-04T22:26:54.497Z,81.17
2018-09-04T22:29:23.588Z,84.57
2018-09-04T22:31:52.765Z,96.57
2018-09-04T22:34:21.842Z,86.27
2018-09-04T22:36:51.016Z,82.07
2018-09-04T22:39:20.135Z,92.17
2018-09-04T22:41:49.182Z,86.07
2018-09-04T22:44:18.266Z,94.97
2018-09-04T22:46:47.377Z,90.07
2018-09-04T22:49:16.450Z,82.97
2018-09-04T22:51:45.508Z,86.50
2018-09-04T22:54:14.795Z,79.77
2018-09-04T22:56:44.072Z,92.60
2018-09-04T22:59:13.310Z,76.17
2018-09-04T23:01:42.466Z,90.93
2018-09-04T23:04:11.642Z,92.27
2018-09-04T23:06:40.662Z,89.70
2018-09-04T23:09:09.749Z,96.07
2018-09-04T23:11:38.835Z,91.80
2018-09-04T23:14:08.092Z,94.70
2018-09-04T23:16:37.196Z,92.37
2018-09-04T23:19:06.790Z,97.83
2018-09-04T23:21:35.955Z,104.03
2018-09-04T23:24:05.272Z,103.00
2018-09-04T23:26:34.397Z,102.30
2018-09-04T23:29:03.511Z,111.63
2018-09-04T23:31:32.646Z,107.63
2018-09-04T23:34:01.791Z,105.80
2018-09-04T23:36:30.870Z,103.60
2018-09-04T23:38:59.939Z,116.67
2018-09-04T23:41:30.423Z,106.03
2018-09-04T23:43:59.743Z,119.40
2018-09-04T23:46:29.440Z,112.80
2018-09-04T23:48:58.557Z,119.10
2018-09-04T23:51:27.782Z,112.40
2018-09-04T23:53:56.931Z,109.50
2018-09-04T23:56:26.019Z,105.53
2018-09-04T23:58:55.108Z,108.93
